sensor_id;sensor_type;location;lat;lon;timestamp;temperature;humidity
1716;DHT22;855;48.824;9.220;2022-08-20T00:01:05;22.80;77.50
1716;DHT22;855;48.824;9.220;2022-08-20T00:03:36;22.80;77.50
1716;DHT22;855;48.824;9.220;2022-08-20T00:06:08;22.90;77.20
1716;DHT22;855;48.824;9.220;2022-08-20T00:08:35;22.90;77.20
1716;DHT22;855;48.824;9.220;2022-08-20T00:11:03;22.80;77.50
1716;DHT22;855;48.824;9.220;2022-08-20T00:13:33;22.80;77.60
1716;DHT22;855;48.824;9.220;2022-08-20T00:16:01;22.70;77.90
1716;DHT22;855;48.824;9.220;2022-08-20T00:18:29;22.70;78.30
1716;DHT22;855;48.824;9.220;2022-08-20T00:20:56;22.80;78.00
1716;DHT22;855;48.824;9.220;2022-08-20T00:23:25;22.80;78.00
1716;DHT22;855;48.824;9.220;2022-08-20T00:25:52;22.70;78.20
1716;DHT22;855;48.824;9.220;2022-08-20T00:28:19;22.80;78.20
1716;DHT22;855;48.824;9.220;2022-08-20T00:30:46;22.70;78.30
1716;DHT22;855;48.824;9.220;2022-08-20T00:33:18;22.60;78.60
1716;DHT22;855;48.824;9.220;2022-08-20T00:35:48;22.60;78.70
1716;DHT22;855;48.824;9.220;2022-08-20T00:38:16;22.50;79.00
1716;DHT22;855;48.824;9.220;2022-08-20T00:40:47;22.50;79.10
1716;DHT22;855;48.824;9.220;2022-08-20T00:43:26;22.50;79.20
1716;DHT22;855;48.824;9.220;2022-08-20T00:45:54;22.50;79.20
1716;DHT22;855;48.824;9.220;2022-08-20T00:48:22;22.50;79.20
1716;DHT22;855;48.824;9.220;2022-08-20T00:50:50;22.40;79.50
1716;DHT22;855;48.824;9.220;2022-08-20T00:53:19;22.30;79.90
1716;DHT22;855;48.824;9.220;2022-08-20T00:55:48;22.30;80.10
1716;DHT22;855;48.824;9.220;2022-08-20T00:58:15;22.30;80.00
1716;DHT22;855;48.824;9.220;2022-08-20T01:00:44;22.40;79.90
1716;DHT22;855;48.824;9.220;2022-08-20T01:03:14;22.40;79.90
1716;DHT22;855;48.824;9.220;2022-08-20T01:05:44;22.40;79.90
1716;DHT22;855;48.824;9.220;2022-08-20T01:08:13;22.50;79.90
1716;DHT22;855;48.824;9.220;2022-08-20T01:10:42;22.50;80.00
1716;DHT22;855;48.824;9.220;2022-08-20T01:13:14;22.40;80.10
1716;DHT22;855;48.824;9.220;2022-08-20T01:15:43;22.50;80.10
1716;DHT22;855;48.824;9.220;2022-08-20T01:18:14;22.50;80.00
1716;DHT22;855;48.824;9.220;2022-08-20T01:20:45;22.50;80.10
1716;DHT22;855;48.824;9.220;2022-08-20T01:23:17;22.50;80.00
1716;DHT22;855;48.824;9.220;2022-08-20T01:26:00;22.60;79.90
1716;DHT22;855;48.824;9.220;2022-08-20T01:28:33;22.60;79.60
1716;DHT22;855;48.824;9.220;2022-08-20T01:31:01;22.60;79.70
1716;DHT22;855;48.824;9.220;2022-08-20T01:33:29;22.60;79.50
1716;DHT22;855;48.824;9.220;2022-08-20T01:35:56;22.70;79.30
1716;DHT22;855;48.824;9.220;2022-08-20T01:38:23;22.80;79.20
1716;DHT22;855;48.824;9.220;2022-08-20T01:41:08;22.80;79.00
1716;DHT22;855;48.824;9.220;2022-08-20T01:43:36;22.80;79.00
1716;DHT22;855;48.824;9.220;2022-08-20T01:46:04;22.80;79.20
1716;DHT22;855;48.824;9.220;2022-08-20T01:48:32;22.80;79.30
1716;DHT22;855;48.824;9.220;2022-08-20T01:51:04;22.90;79.20
1716;DHT22;855;48.824;9.220;2022-08-20T01:53:36;22.90;79.00
1716;DHT22;855;48.824;9.220;2022-08-20T01:56:07;22.90;78.80
1716;DHT22;855;48.824;9.220;2022-08-20T01:58:38;23.00;78.60
1716;DHT22;855;48.824;9.220;2022-08-20T02:01:06;23.00;78.40
1716;DHT22;855;48.824;9.220;2022-08-20T02:03:32;23.10;78.60
1716;DHT22;855;48.824;9.220;2022-08-20T02:06:00;23.10;78.40
1716;DHT22;855;48.824;9.220;2022-08-20T02:08:28;23.10;78.30
1716;DHT22;855;48.824;9.220;2022-08-20T02:10:57;23.10;78.40
1716;DHT22;855;48.824;9.220;2022-08-20T02:13:25;23.00;78.80
1716;DHT22;855;48.824;9.220;2022-08-20T02:15:52;23.00;78.70
1716;DHT22;855;48.824;9.220;2022-08-20T02:18:20;23.00;78.80
1716;DHT22;855;48.824;9.220;2022-08-20T02:20:47;23.10;78.70
1716;DHT22;855;48.824;9.220;2022-08-20T02:23:16;22.90;79.10
1716;DHT22;855;48.824;9.220;2022-08-20T02:25:45;22.90;79.10
1716;DHT22;855;48.824;9.220;2022-08-20T02:28:15;22.90;79.10
1716;DHT22;855;48.824;9.220;2022-08-20T02:30:47;22.90;79.20
1716;DHT22;855;48.824;9.220;2022-08-20T02:33:16;22.90;79.20
1716;DHT22;855;48.824;9.220;2022-08-20T02:35:45;22.90;79.50
1716;DHT22;855;48.824;9.220;2022-08-20T02:38:14;22.80;79.70
1716;DHT22;855;48.824;9.220;2022-08-20T02:40:41;22.80;80.30
1716;DHT22;855;48.824;9.220;2022-08-20T02:43:10;22.80;80.10
1716;DHT22;855;48.824;9.220;2022-08-20T02:45:37;22.80;80.30
1716;DHT22;855;48.824;9.220;2022-08-20T02:48:11;22.70;80.50
1716;DHT22;855;48.824;9.220;2022-08-20T02:50:42;22.70;80.40
1716;DHT22;855;48.824;9.220;2022-08-20T02:53:09;22.70;80.50
1716;DHT22;855;48.824;9.220;2022-08-20T02:55:36;22.70;80.70
1716;DHT22;855;48.824;9.220;2022-08-20T02:58:03;22.70;80.80
1716;DHT22;855;48.824;9.220;2022-08-20T03:00:31;22.70;80.90
1716;DHT22;855;48.824;9.220;2022-08-20T03:02:58;22.60;81.60
1716;DHT22;855;48.824;9.220;2022-08-20T03:05:27;22.50;81.60
1716;DHT22;855;48.824;9.220;2022-08-20T03:07:54;22.40;81.90
1716;DHT22;855;48.824;9.220;2022-08-20T03:10:22;22.30;82.40
1716;DHT22;855;48.824;9.220;2022-08-20T03:12:49;22.30;82.80
1716;DHT22;855;48.824;9.220;2022-08-20T03:15:17;22.20;83.00
1716;DHT22;855;48.824;9.220;2022-08-20T03:17:45;22.30;83.00
1716;DHT22;855;48.824;9.220;2022-08-20T03:20:12;22.20;83.00
1716;DHT22;855;48.824;9.220;2022-08-20T03:22:41;22.30;83.00
1716;DHT22;855;48.824;9.220;2022-08-20T03:25:09;22.30;83.20
1716;DHT22;855;48.824;9.220;2022-08-20T03:27:36;22.30;83.20
1716;DHT22;855;48.824;9.220;2022-08-20T03:30:05;22.20;83.30
1716;DHT22;855;48.824;9.220;2022-08-20T03:32:32;22.20;83.60
1716;DHT22;855;48.824;9.220;2022-08-20T03:34:59;22.20;83.80
1716;DHT22;855;48.824;9.220;2022-08-20T03:37:29;22.30;83.70
1716;DHT22;855;48.824;9.220;2022-08-20T03:39:58;22.20;82.90
1716;DHT22;855;48.824;9.220;2022-08-20T03:42:25;22.20;83.00
1716;DHT22;855;48.824;9.220;2022-08-20T03:44:52;22.20;83.30
1716;DHT22;855;48.824;9.220;2022-08-20T03:47:19;22.30;83.20
1716;DHT22;855;48.824;9.220;2022-08-20T03:49:46;22.30;83.20
1716;DHT22;855;48.824;9.220;2022-08-20T03:52:13;22.30;83.30
1716;DHT22;855;48.824;9.220;2022-08-20T03:54:41;22.30;82.70
1716;DHT22;855;48.824;9.220;2022-08-20T03:57:13;22.20;82.80
1716;DHT22;855;48.824;9.220;2022-08-20T03:59:41;22.20;83.20
1716;DHT22;855;48.824;9.220;2022-08-20T04:02:09;22.10;82.70
1716;DHT22;855;48.824;9.220;2022-08-20T04:04:36;22.10;82.80
1716;DHT22;855;48.824;9.220;2022-08-20T04:07:09;22.00;83.00
1716;DHT22;855;48.824;9.220;2022-08-20T04:09:36;22.00;83.30
1716;DHT22;855;48.824;9.220;2022-08-20T04:12:04;22.00;83.00
1716;DHT22;855;48.824;9.220;2022-08-20T04:14:33;22.00;83.00
1716;DHT22;855;48.824;9.220;2022-08-20T04:17:03;22.00;83.20
1716;DHT22;855;48.824;9.220;2022-08-20T04:19:30;22.00;83.20
1716;DHT22;855;48.824;9.220;2022-08-20T04:21:58;22.00;83.20
1716;DHT22;855;48.824;9.220;2022-08-20T04:24:25;21.90;83.30
1716;DHT22;855;48.824;9.220;2022-08-20T04:26:52;21.90;83.30
1716;DHT22;855;48.824;9.220;2022-08-20T04:29:20;22.00;83.20
1716;DHT22;855;48.824;9.220;2022-08-20T04:31:48;22.00;83.30
1716;DHT22;855;48.824;9.220;2022-08-20T04:34:15;22.00;83.40
1716;DHT22;855;48.824;9.220;2022-08-20T04:36:43;22.00;83.30
1716;DHT22;855;48.824;9.220;2022-08-20T04:39:12;22.10;82.90
1716;DHT22;855;48.824;9.220;2022-08-20T04:41:39;22.20;82.80
1716;DHT22;855;48.824;9.220;2022-08-20T04:44:06;22.30;82.70
1716;DHT22;855;48.824;9.220;2022-08-20T04:46:33;22.30;82.50
1716;DHT22;855;48.824;9.220;2022-08-20T04:49:02;22.30;82.70
1716;DHT22;855;48.824;9.220;2022-08-20T04:51:30;22.20;82.80
1716;DHT22;855;48.824;9.220;2022-08-20T04:53:57;22.20;82.80
1716;DHT22;855;48.824;9.220;2022-08-20T04:56:28;22.20;83.00
1716;DHT22;855;48.824;9.220;2022-08-20T04:58:58;22.30;82.90
1716;DHT22;855;48.824;9.220;2022-08-20T05:01:26;22.30;82.90
1716;DHT22;855;48.824;9.220;2022-08-20T05:03:54;22.40;82.50
1716;DHT22;855;48.824;9.220;2022-08-20T05:06:24;22.40;82.40
1716;DHT22;855;48.824;9.220;2022-08-20T05:08:52;22.40;82.40
1716;DHT22;855;48.824;9.220;2022-08-20T05:11:19;22.40;82.70
1716;DHT22;855;48.824;9.220;2022-08-20T05:13:46;22.30;83.60
1716;DHT22;855;48.824;9.220;2022-08-20T05:16:14;22.40;83.40
1716;DHT22;855;48.824;9.220;2022-08-20T05:18:42;22.40;84.20
1716;DHT22;855;48.824;9.220;2022-08-20T05:21:11;22.40;84.50
1716;DHT22;855;48.824;9.220;2022-08-20T05:23:39;22.50;85.00
1716;DHT22;855;48.824;9.220;2022-08-20T05:26:07;22.40;85.20
1716;DHT22;855;48.824;9.220;2022-08-20T05:28:35;22.30;86.10
1716;DHT22;855;48.824;9.220;2022-08-20T05:31:04;22.20;87.00
1716;DHT22;855;48.824;9.220;2022-08-20T05:33:35;22.10;87.00
1716;DHT22;855;48.824;9.220;2022-08-20T05:36:03;22.20;87.10
1716;DHT22;855;48.824;9.220;2022-08-20T05:38:32;22.10;87.70
1716;DHT22;855;48.824;9.220;2022-08-20T05:41:00;22.10;87.90
1716;DHT22;855;48.824;9.220;2022-08-20T05:43:27;22.10;87.70
1716;DHT22;855;48.824;9.220;2022-08-20T05:45:56;22.10;88.10
1716;DHT22;855;48.824;9.220;2022-08-20T05:48:24;22.20;87.80
1716;DHT22;855;48.824;9.220;2022-08-20T05:50:52;22.10;87.90
1716;DHT22;855;48.824;9.220;2022-08-20T05:53:21;22.10;87.90
1716;DHT22;855;48.824;9.220;2022-08-20T05:55:48;22.20;87.70
1716;DHT22;855;48.824;9.220;2022-08-20T05:58:19;22.30;87.30
1716;DHT22;855;48.824;9.220;2022-08-20T06:00:47;22.30;86.60
1716;DHT22;855;48.824;9.220;2022-08-20T06:03:14;22.40;86.60
1716;DHT22;855;48.824;9.220;2022-08-20T06:05:59;22.40;86.60
1716;DHT22;855;48.824;9.220;2022-08-20T06:08:25;22.60;86.50
1716;DHT22;855;48.824;9.220;2022-08-20T06:10:54;22.60;86.00
1716;DHT22;855;48.824;9.220;2022-08-20T06:13:23;22.60;86.10
1716;DHT22;855;48.824;9.220;2022-08-20T06:15:50;22.70;84.90
1716;DHT22;855;48.824;9.220;2022-08-20T06:18:18;22.80;84.80
1716;DHT22;855;48.824;9.220;2022-08-20T06:20:44;23.00;84.40
1716;DHT22;855;48.824;9.220;2022-08-20T06:23:11;23.00;84.00
1716;DHT22;855;48.824;9.220;2022-08-20T06:25:38;23.00;83.70
1716;DHT22;855;48.824;9.220;2022-08-20T06:28:06;23.00;83.80
1716;DHT22;855;48.824;9.220;2022-08-20T06:30:34;23.10;83.40
1716;DHT22;855;48.824;9.220;2022-08-20T06:33:01;23.10;83.30
1716;DHT22;855;48.824;9.220;2022-08-20T06:35:28;23.20;83.00
1716;DHT22;855;48.824;9.220;2022-08-20T06:37:55;23.30;82.90
1716;DHT22;855;48.824;9.220;2022-08-20T06:40:26;23.40;83.30
1716;DHT22;855;48.824;9.220;2022-08-20T06:42:55;23.50;83.00
1716;DHT22;855;48.824;9.220;2022-08-20T06:45:25;23.60;82.00
1716;DHT22;855;48.824;9.220;2022-08-20T06:47:56;23.60;82.00
1716;DHT22;855;48.824;9.220;2022-08-20T06:50:26;23.70;81.90
1716;DHT22;855;48.824;9.220;2022-08-20T06:52:54;23.60;81.70
1716;DHT22;855;48.824;9.220;2022-08-20T06:55:21;23.50;81.50
1716;DHT22;855;48.824;9.220;2022-08-20T06:57:56;23.50;82.40
1716;DHT22;855;48.824;9.220;2022-08-20T07:00:24;23.50;82.40
1716;DHT22;855;48.824;9.220;2022-08-20T07:02:51;23.30;82.50
1716;DHT22;855;48.824;9.220;2022-08-20T07:05:20;23.10;83.20
1716;DHT22;855;48.824;9.220;2022-08-20T07:07:47;22.90;84.00
1716;DHT22;855;48.824;9.220;2022-08-20T07:10:16;22.70;84.40
1716;DHT22;855;48.824;9.220;2022-08-20T07:12:43;22.60;85.30
1716;DHT22;855;48.824;9.220;2022-08-20T07:15:13;22.80;84.60
1716;DHT22;855;48.824;9.220;2022-08-20T07:17:40;22.90;84.10
1716;DHT22;855;48.824;9.220;2022-08-20T07:20:11;22.80;84.80
1716;DHT22;855;48.824;9.220;2022-08-20T07:22:39;22.80;85.60
1716;DHT22;855;48.824;9.220;2022-08-20T07:25:09;22.90;85.40
1716;DHT22;855;48.824;9.220;2022-08-20T07:27:37;22.90;85.20
1716;DHT22;855;48.824;9.220;2022-08-20T07:30:06;23.00;85.60
1716;DHT22;855;48.824;9.220;2022-08-20T07:32:50;23.10;85.00
1716;DHT22;855;48.824;9.220;2022-08-20T07:35:17;23.00;85.00
1716;DHT22;855;48.824;9.220;2022-08-20T07:37:48;23.20;85.70
1716;DHT22;855;48.824;9.220;2022-08-20T07:40:19;23.30;83.40
1716;DHT22;855;48.824;9.220;2022-08-20T07:42:46;23.60;83.60
1716;DHT22;855;48.824;9.220;2022-08-20T07:45:16;23.70;82.50
1716;DHT22;855;48.824;9.220;2022-08-20T07:47:44;23.80;81.30
1716;DHT22;855;48.824;9.220;2022-08-20T07:50:15;24.00;80.50
1716;DHT22;855;48.824;9.220;2022-08-20T07:52:43;24.20;80.10
1716;DHT22;855;48.824;9.220;2022-08-20T07:55:14;24.20;79.60
1716;DHT22;855;48.824;9.220;2022-08-20T07:57:42;24.20;78.00
1716;DHT22;855;48.824;9.220;2022-08-20T08:00:13;24.10;78.20
1716;DHT22;855;48.824;9.220;2022-08-20T08:02:40;24.10;79.00
1716;DHT22;855;48.824;9.220;2022-08-20T08:05:07;24.40;77.80
1716;DHT22;855;48.824;9.220;2022-08-20T08:07:35;24.60;78.30
1716;DHT22;855;48.824;9.220;2022-08-20T08:10:05;24.90;77.10
1716;DHT22;855;48.824;9.220;2022-08-20T08:12:39;25.10;75.90
1716;DHT22;855;48.824;9.220;2022-08-20T08:15:10;25.40;74.70
1716;DHT22;855;48.824;9.220;2022-08-20T08:17:37;25.20;75.00
1716;DHT22;855;48.824;9.220;2022-08-20T08:20:06;24.70;76.30
1716;DHT22;855;48.824;9.220;2022-08-20T08:22:33;24.60;77.40
1716;DHT22;855;48.824;9.220;2022-08-20T08:25:00;24.80;76.30
1716;DHT22;855;48.824;9.220;2022-08-20T08:27:27;25.00;76.00
1716;DHT22;855;48.824;9.220;2022-08-20T08:29:58;25.20;74.90
1716;DHT22;855;48.824;9.220;2022-08-20T08:32:25;25.40;73.80
1716;DHT22;855;48.824;9.220;2022-08-20T08:34:52;25.30;74.10
1716;DHT22;855;48.824;9.220;2022-08-20T08:37:19;25.30;74.70
1716;DHT22;855;48.824;9.220;2022-08-20T08:39:46;25.30;74.60
1716;DHT22;855;48.824;9.220;2022-08-20T08:42:23;25.20;74.20
1716;DHT22;855;48.824;9.220;2022-08-20T08:44:52;25.20;74.20
1716;DHT22;855;48.824;9.220;2022-08-20T08:47:25;25.20;74.90
1716;DHT22;855;48.824;9.220;2022-08-20T08:49:54;25.10;73.90
1716;DHT22;855;48.824;9.220;2022-08-20T08:52:24;24.80;75.00
1716;DHT22;855;48.824;9.220;2022-08-20T08:54:55;24.80;75.00
1716;DHT22;855;48.824;9.220;2022-08-20T08:57:24;24.90;74.70
1716;DHT22;855;48.824;9.220;2022-08-20T08:59:54;24.80;75.00
1716;DHT22;855;48.824;9.220;2022-08-20T09:02:25;24.80;75.10
1716;DHT22;855;48.824;9.220;2022-08-20T09:04:53;24.90;75.30
1716;DHT22;855;48.824;9.220;2022-08-20T09:07:22;25.00;74.10
1716;DHT22;855;48.824;9.220;2022-08-20T09:09:50;25.10;73.70
1716;DHT22;855;48.824;9.220;2022-08-20T09:12:19;25.20;74.10
1716;DHT22;855;48.824;9.220;2022-08-20T09:14:47;25.00;74.60
1716;DHT22;855;48.824;9.220;2022-08-20T09:17:16;25.00;75.00
1716;DHT22;855;48.824;9.220;2022-08-20T09:19:44;25.10;74.30
1716;DHT22;855;48.824;9.220;2022-08-20T09:22:13;25.40;73.90
1716;DHT22;855;48.824;9.220;2022-08-20T09:24:41;25.80;72.20
1716;DHT22;855;48.824;9.220;2022-08-20T09:27:08;26.00;71.30
1716;DHT22;855;48.824;9.220;2022-08-20T09:29:36;25.80;70.50
1716;DHT22;855;48.824;9.220;2022-08-20T09:32:05;25.80;71.00
1716;DHT22;855;48.824;9.220;2022-08-20T09:34:34;25.70;70.90
1716;DHT22;855;48.824;9.220;2022-08-20T09:37:03;25.40;72.20
1716;DHT22;855;48.824;9.220;2022-08-20T09:39:30;25.30;72.50
1716;DHT22;855;48.824;9.220;2022-08-20T09:42:06;25.00;73.10
1716;DHT22;855;48.824;9.220;2022-08-20T09:44:33;24.80;73.10
1716;DHT22;855;48.824;9.220;2022-08-20T09:47:00;24.70;73.30
1716;DHT22;855;48.824;9.220;2022-08-20T09:49:27;24.70;73.30
1716;DHT22;855;48.824;9.220;2022-08-20T09:51:54;24.60;73.90
1716;DHT22;855;48.824;9.220;2022-08-20T09:54:22;24.70;74.30
1716;DHT22;855;48.824;9.220;2022-08-20T09:56:52;24.80;73.50
1716;DHT22;855;48.824;9.220;2022-08-20T09:59:19;24.80;74.20
1716;DHT22;855;48.824;9.220;2022-08-20T10:01:46;24.90;73.80
1716;DHT22;855;48.824;9.220;2022-08-20T10:04:13;25.00;73.70
1716;DHT22;855;48.824;9.220;2022-08-20T10:06:40;24.90;73.80
1716;DHT22;855;48.824;9.220;2022-08-20T10:09:07;25.00;73.90
1716;DHT22;855;48.824;9.220;2022-08-20T10:11:36;25.00;74.30
1716;DHT22;855;48.824;9.220;2022-08-20T10:14:03;25.00;74.20
1716;DHT22;855;48.824;9.220;2022-08-20T10:16:30;24.80;74.60
1716;DHT22;855;48.824;9.220;2022-08-20T10:18:57;24.90;74.20
1716;DHT22;855;48.824;9.220;2022-08-20T10:21:24;25.00;73.40
1716;DHT22;855;48.824;9.220;2022-08-20T10:23:50;25.10;73.10
1716;DHT22;855;48.824;9.220;2022-08-20T10:26:17;25.30;71.90
1716;DHT22;855;48.824;9.220;2022-08-20T10:28:46;25.40;71.80
1716;DHT22;855;48.824;9.220;2022-08-20T10:31:12;25.50;71.60
1716;DHT22;855;48.824;9.220;2022-08-20T10:33:40;25.40;72.30
1716;DHT22;855;48.824;9.220;2022-08-20T10:36:09;25.30;72.50
1716;DHT22;855;48.824;9.220;2022-08-20T10:38:36;25.30;71.70
1716;DHT22;855;48.824;9.220;2022-08-20T10:41:03;25.10;71.80
1716;DHT22;855;48.824;9.220;2022-08-20T10:43:30;24.80;73.30
1716;DHT22;855;48.824;9.220;2022-08-20T10:45:58;24.80;73.30
1716;DHT22;855;48.824;9.220;2022-08-20T10:48:25;24.60;72.70
1716;DHT22;855;48.824;9.220;2022-08-20T10:50:52;24.40;73.50
1716;DHT22;855;48.824;9.220;2022-08-20T10:53:19;24.40;73.40
1716;DHT22;855;48.824;9.220;2022-08-20T10:55:46;24.60;73.10
1716;DHT22;855;48.824;9.220;2022-08-20T10:58:13;24.60;72.60
1716;DHT22;855;48.824;9.220;2022-08-20T11:00:40;24.70;72.90
1716;DHT22;855;48.824;9.220;2022-08-20T11:03:08;25.10;71.80
1716;DHT22;855;48.824;9.220;2022-08-20T11:05:35;25.10;70.00
1716;DHT22;855;48.824;9.220;2022-08-20T11:08:03;25.00;70.20
1716;DHT22;855;48.824;9.220;2022-08-20T11:10:31;25.00;70.20
1716;DHT22;855;48.824;9.220;2022-08-20T11:12:59;25.20;69.70
1716;DHT22;855;48.824;9.220;2022-08-20T11:15:27;25.10;70.10
1716;DHT22;855;48.824;9.220;2022-08-20T11:17:54;25.10;70.00
1716;DHT22;855;48.824;9.220;2022-08-20T11:20:23;25.00;69.40
1716;DHT22;855;48.824;9.220;2022-08-20T11:22:51;24.60;70.50
1716;DHT22;855;48.824;9.220;2022-08-20T11:25:18;24.50;71.30
1716;DHT22;855;48.824;9.220;2022-08-20T11:27:47;24.40;72.90
1716;DHT22;855;48.824;9.220;2022-08-20T11:30:15;24.30;73.50
1716;DHT22;855;48.824;9.220;2022-08-20T11:32:42;24.40;73.80
1716;DHT22;855;48.824;9.220;2022-08-20T11:35:10;24.50;72.50
1716;DHT22;855;48.824;9.220;2022-08-20T11:37:38;24.40;71.30
1716;DHT22;855;48.824;9.220;2022-08-20T11:40:06;24.40;71.60
1716;DHT22;855;48.824;9.220;2022-08-20T11:42:33;24.40;71.60
1716;DHT22;855;48.824;9.220;2022-08-20T11:45:00;24.70;71.40
1716;DHT22;855;48.824;9.220;2022-08-20T11:47:28;24.90;70.60
1716;DHT22;855;48.824;9.220;2022-08-20T11:49:57;25.10;69.00
1716;DHT22;855;48.824;9.220;2022-08-20T11:52:25;25.20;69.30
1716;DHT22;855;48.824;9.220;2022-08-20T11:54:53;25.30;69.20
1716;DHT22;855;48.824;9.220;2022-08-20T11:57:21;25.40;68.50
1716;DHT22;855;48.824;9.220;2022-08-20T11:59:49;25.40;68.60
1716;DHT22;855;48.824;9.220;2022-08-20T12:02:16;25.50;67.50
1716;DHT22;855;48.824;9.220;2022-08-20T12:04:43;25.50;67.90
1716;DHT22;855;48.824;9.220;2022-08-20T12:07:12;25.60;67.50
1716;DHT22;855;48.824;9.220;2022-08-20T12:09:40;25.60;67.60
1716;DHT22;855;48.824;9.220;2022-08-20T12:12:09;25.60;67.50
1716;DHT22;855;48.824;9.220;2022-08-20T12:14:36;25.60;67.90
1716;DHT22;855;48.824;9.220;2022-08-20T12:17:07;25.60;68.00
1716;DHT22;855;48.824;9.220;2022-08-20T12:19:38;25.50;68.80
1716;DHT22;855;48.824;9.220;2022-08-20T12:22:05;25.50;69.00
1716;DHT22;855;48.824;9.220;2022-08-20T12:24:32;25.40;69.30
1716;DHT22;855;48.824;9.220;2022-08-20T12:27:09;25.40;68.90
1716;DHT22;855;48.824;9.220;2022-08-20T12:29:37;25.50;69.30
1716;DHT22;855;48.824;9.220;2022-08-20T12:32:05;25.50;69.30
1716;DHT22;855;48.824;9.220;2022-08-20T12:34:32;25.60;69.20
1716;DHT22;855;48.824;9.220;2022-08-20T12:37:00;25.20;70.90
1716;DHT22;855;48.824;9.220;2022-08-20T12:39:29;24.80;73.70
1716;DHT22;855;48.824;9.220;2022-08-20T12:41:58;24.50;75.40
1716;DHT22;855;48.824;9.220;2022-08-20T12:44:26;24.40;76.80
1716;DHT22;855;48.824;9.220;2022-08-20T12:47:04;24.10;78.60
1716;DHT22;855;48.824;9.220;2022-08-20T12:49:31;24.00;79.60
1716;DHT22;855;48.824;9.220;2022-08-20T12:51:58;24.20;81.20
1716;DHT22;855;48.824;9.220;2022-08-20T12:54:25;24.40;81.70
1716;DHT22;855;48.824;9.220;2022-08-20T12:56:52;24.50;81.10
1716;DHT22;855;48.824;9.220;2022-08-20T12:59:21;24.30;81.90
1716;DHT22;855;48.824;9.220;2022-08-20T13:01:50;23.80;85.20
1716;DHT22;855;48.824;9.220;2022-08-20T13:04:18;23.00;79.00
1716;DHT22;855;48.824;9.220;2022-08-20T13:06:45;22.70;83.00
1716;DHT22;855;48.824;9.220;2022-08-20T13:09:13;22.60;85.20
1716;DHT22;855;48.824;9.220;2022-08-20T13:11:40;22.50;86.90
1716;DHT22;855;48.824;9.220;2022-08-20T13:14:07;22.40;87.90
1716;DHT22;855;48.824;9.220;2022-08-20T13:16:35;22.40;89.00
1716;DHT22;855;48.824;9.220;2022-08-20T13:19:03;22.10;90.20
1716;DHT22;855;48.824;9.220;2022-08-20T13:21:30;21.90;91.40
1716;DHT22;855;48.824;9.220;2022-08-20T13:23:57;22.00;92.20
1716;DHT22;855;48.824;9.220;2022-08-20T13:26:24;22.10;91.80
1716;DHT22;855;48.824;9.220;2022-08-20T13:28:50;22.30;92.60
1716;DHT22;855;48.824;9.220;2022-08-20T13:31:17;22.50;91.40
1716;DHT22;855;48.824;9.220;2022-08-20T13:33:44;22.70;91.30
1716;DHT22;855;48.824;9.220;2022-08-20T13:36:13;22.80;90.10
1716;DHT22;855;48.824;9.220;2022-08-20T13:38:40;23.00;88.90
1716;DHT22;855;48.824;9.220;2022-08-20T13:41:06;23.10;87.80
1716;DHT22;855;48.824;9.220;2022-08-20T13:43:33;23.20;88.10
1716;DHT22;855;48.824;9.220;2022-08-20T13:46:00;23.20;87.30
1716;DHT22;855;48.824;9.220;2022-08-20T13:48:27;23.40;86.90
1716;DHT22;855;48.824;9.220;2022-08-20T13:50:54;23.80;85.40
1716;DHT22;855;48.824;9.220;2022-08-20T13:53:22;24.30;86.90
1716;DHT22;855;48.824;9.220;2022-08-20T13:55:49;24.70;86.40
1716;DHT22;855;48.824;9.220;2022-08-20T13:58:16;25.10;84.50
1716;DHT22;855;48.824;9.220;2022-08-20T14:00:45;25.30;82.90
1716;DHT22;855;48.824;9.220;2022-08-20T14:03:11;25.40;82.00
1716;DHT22;855;48.824;9.220;2022-08-20T14:05:39;25.40;78.40
1716;DHT22;855;48.824;9.220;2022-08-20T14:08:08;25.40;80.30
1716;DHT22;855;48.824;9.220;2022-08-20T14:10:36;25.50;82.10
1716;DHT22;855;48.824;9.220;2022-08-20T14:13:04;25.40;81.20
1716;DHT22;855;48.824;9.220;2022-08-20T14:15:31;25.40;82.10
1716;DHT22;855;48.824;9.220;2022-08-20T14:17:58;25.30;81.90
1716;DHT22;855;48.824;9.220;2022-08-20T14:20:28;25.40;81.20
1716;DHT22;855;48.824;9.220;2022-08-20T14:22:55;25.50;81.50
1716;DHT22;855;48.824;9.220;2022-08-20T14:25:23;25.60;81.70
1716;DHT22;855;48.824;9.220;2022-08-20T14:27:53;25.50;79.50
1716;DHT22;855;48.824;9.220;2022-08-20T14:30:23;25.50;79.50
1716;DHT22;855;48.824;9.220;2022-08-20T14:32:51;25.40;78.20
1716;DHT22;855;48.824;9.220;2022-08-20T14:35:18;25.40;79.10
1716;DHT22;855;48.824;9.220;2022-08-20T14:37:47;25.60;78.40
1716;DHT22;855;48.824;9.220;2022-08-20T14:40:17;25.60;77.20
1716;DHT22;855;48.824;9.220;2022-08-20T14:42:45;25.70;77.40
1716;DHT22;855;48.824;9.220;2022-08-20T14:45:16;25.60;77.40
1716;DHT22;855;48.824;9.220;2022-08-20T14:47:45;25.70;74.60
1716;DHT22;855;48.824;9.220;2022-08-20T14:50:15;25.70;75.90
1716;DHT22;855;48.824;9.220;2022-08-20T14:52:43;25.90;74.20
1716;DHT22;855;48.824;9.220;2022-08-20T14:55:13;26.30;75.90
1716;DHT22;855;48.824;9.220;2022-08-20T14:57:41;26.40;72.70
1716;DHT22;855;48.824;9.220;2022-08-20T15:00:12;26.30;71.70
1716;DHT22;855;48.824;9.220;2022-08-20T15:02:41;26.10;72.30
1716;DHT22;855;48.824;9.220;2022-08-20T15:05:08;26.20;72.30
1716;DHT22;855;48.824;9.220;2022-08-20T15:07:38;26.30;72.50
1716;DHT22;855;48.824;9.220;2022-08-20T15:10:07;26.10;73.10
1716;DHT22;855;48.824;9.220;2022-08-20T15:12:35;26.30;72.20
1716;DHT22;855;48.824;9.220;2022-08-20T15:15:05;26.50;72.20
1716;DHT22;855;48.824;9.220;2022-08-20T15:17:33;26.60;73.00
1716;DHT22;855;48.824;9.220;2022-08-20T15:20:03;26.60;72.70
1716;DHT22;855;48.824;9.220;2022-08-20T15:22:33;26.70;73.00
1716;DHT22;855;48.824;9.220;2022-08-20T15:25:00;26.60;73.40
1716;DHT22;855;48.824;9.220;2022-08-20T15:27:27;26.40;71.70
1716;DHT22;855;48.824;9.220;2022-08-20T15:29:54;26.40;73.70
1716;DHT22;855;48.824;9.220;2022-08-20T15:32:21;26.40;73.50
1716;DHT22;855;48.824;9.220;2022-08-20T15:34:48;26.40;73.90
1716;DHT22;855;48.824;9.220;2022-08-20T15:37:19;26.50;74.20
1716;DHT22;855;48.824;9.220;2022-08-20T15:39:47;26.50;75.30
1716;DHT22;855;48.824;9.220;2022-08-20T15:42:15;26.30;74.70
1716;DHT22;855;48.824;9.220;2022-08-20T15:44:42;26.20;75.40
1716;DHT22;855;48.824;9.220;2022-08-20T15:47:19;26.20;74.60
1716;DHT22;855;48.824;9.220;2022-08-20T15:49:47;26.30;75.30
1716;DHT22;855;48.824;9.220;2022-08-20T15:52:16;26.20;74.20
1716;DHT22;855;48.824;9.220;2022-08-20T15:54:43;26.20;73.70
1716;DHT22;855;48.824;9.220;2022-08-20T15:57:13;26.10;75.00
1716;DHT22;855;48.824;9.220;2022-08-20T15:59:58;26.30;75.50
1716;DHT22;855;48.824;9.220;2022-08-20T16:02:53;26.20;74.30
1716;DHT22;855;48.824;9.220;2022-08-20T16:05:32;26.30;75.10
1716;DHT22;855;48.824;9.220;2022-08-20T16:08:15;26.30;74.60
1716;DHT22;855;48.824;9.220;2022-08-20T16:10:50;26.40;75.00
1716;DHT22;855;48.824;9.220;2022-08-20T16:13:28;26.40;74.50
1716;DHT22;855;48.824;9.220;2022-08-20T16:15:59;26.20;74.10
1716;DHT22;855;48.824;9.220;2022-08-20T16:18:30;26.20;75.10
1716;DHT22;855;48.824;9.220;2022-08-20T16:20:58;26.40;75.00
1716;DHT22;855;48.824;9.220;2022-08-20T16:23:30;26.50;74.90
1716;DHT22;855;48.824;9.220;2022-08-20T16:26:05;26.50;73.90